createdAt,value
2017-06-25T00:01:21.358Z,51.67
2017-06-25T00:03:48.809Z,51.83
2017-06-25T00:06:16.222Z,51.48
2017-06-25T00:08:46.454Z,51.47
2017-06-25T00:11:15.900Z,51.29
2017-06-25T00:13:43.323Z,51.31
2017-06-25T00:16:10.767Z,51.22
2017-06-25T00:18:38.243Z,51.62
2017-06-25T00:21:05.654Z,51.29
2017-06-25T00:23:33.098Z,50.74
2017-06-25T00:26:03.388Z,50.49
2017-06-25T00:28:31.368Z,50.10
2017-06-25T00:31:00.521Z,50.12
2017-06-25T00:33:28.055Z,49.95
2017-06-25T00:35:55.526Z,49.74
2017-06-25T00:38:22.951Z,49.45
2017-06-25T00:40:50.404Z,49.03
2017-06-25T00:43:17.891Z,48.79
2017-06-25T00:45:45.345Z,48.61
2017-06-25T00:48:12.915Z,48.73
2017-06-25T00:50:40.425Z,47.86
2017-06-25T00:53:14.013Z,47.72
2017-06-25T00:55:46.151Z,48.06
2017-06-25T00:58:14.407Z,47.88
2017-06-25T01:00:43.772Z,47.71
2017-06-25T01:03:14.954Z,47.38
2017-06-25T01:05:42.384Z,47.39
2017-06-25T01:08:09.813Z,47.32
2017-06-25T01:10:37.267Z,46.96
2017-06-25T01:13:05.542Z,47.25
2017-06-25T01:15:32.983Z,47.31
2017-06-25T01:18:00.430Z,47.07
2017-06-25T01:20:28.347Z,47.43
2017-06-25T01:22:55.825Z,47.58
2017-06-25T01:25:23.235Z,47.27
2017-06-25T01:27:56.670Z,47.29
2017-06-25T01:30:52.891Z,48.00
2017-06-25T01:33:20.392Z,48.20
2017-06-25T01:35:47.976Z,48.40
2017-06-25T01:38:15.386Z,49.14
2017-06-25T01:40:42.861Z,49.54
2017-06-25T01:43:10.272Z,49.72
2017-06-25T01:45:37.668Z,49.72
2017-06-25T01:48:05.298Z,49.31
2017-06-25T01:50:32.781Z,49.30
2017-06-25T01:53:00.253Z,49.47
2017-06-25T01:55:31.569Z,48.87
2017-06-25T01:57:59.004Z,50.04
2017-06-25T02:00:26.411Z,50.63
2017-06-25T02:02:53.887Z,50.79
2017-06-25T02:05:21.338Z,50.79
2017-06-25T02:07:48.765Z,50.02
2017-06-25T02:10:16.225Z,50.16
2017-06-25T02:12:43.709Z,49.56
2017-06-25T02:15:11.131Z,50.30
2017-06-25T02:17:38.547Z,50.56
2017-06-25T02:20:06.001Z,50.92
2017-06-25T02:22:33.447Z,51.98
2017-06-25T02:25:00.881Z,52.37
2017-06-25T02:27:28.327Z,52.50
2017-06-25T02:29:55.788Z,52.40
2017-06-25T02:32:23.264Z,52.59
2017-06-25T02:34:50.679Z,52.26
2017-06-25T02:37:18.114Z,52.18
2017-06-25T02:39:46.433Z,51.79
2017-06-25T02:42:13.864Z,51.82
2017-06-25T02:44:42.198Z,52.51
2017-06-25T02:47:09.654Z,52.59
2017-06-25T02:49:37.111Z,52.99
2017-06-25T02:52:04.663Z,52.47
2017-06-25T02:54:32.061Z,51.88
2017-06-25T02:56:59.485Z,50.46
2017-06-25T02:59:30.751Z,50.06
2017-06-25T03:01:58.250Z,50.21
2017-06-25T03:04:25.654Z,50.88
2017-06-25T03:06:53.087Z,50.75
2017-06-25T03:09:32.318Z,51.38
2017-06-25T03:11:59.817Z,50.57
2017-06-25T03:14:27.272Z,50.24
2017-06-25T03:16:54.687Z,50.98
2017-06-25T03:19:22.154Z,51.42
2017-06-25T03:21:49.596Z,51.21
2017-06-25T03:24:17.052Z,51.29
2017-06-25T03:26:44.525Z,51.27
2017-06-25T03:29:12.000Z,52.25
2017-06-25T03:31:39.425Z,52.27
2017-06-25T03:34:06.873Z,52.24
2017-06-25T03:36:36.115Z,51.97
2017-06-25T03:39:04.027Z,51.54
2017-06-25T03:41:31.600Z,51.59
2017-06-25T03:43:59.054Z,51.92
2017-06-25T03:46:26.467Z,52.20
2017-06-25T03:48:53.937Z,51.99
2017-06-25T03:51:23.251Z,51.67
2017-06-25T03:53:50.666Z,51.90
2017-06-25T03:56:18.216Z,51.71
2017-06-25T03:58:45.683Z,51.30
2017-06-25T04:01:13.126Z,51.07
2017-06-25T04:03:41.059Z,51.18
2017-06-25T04:06:08.500Z,51.31
2017-06-25T04:08:35.999Z,51.24
2017-06-25T04:11:03.412Z,51.30
2017-06-25T04:13:30.829Z,50.76
2017-06-25T04:15:58.256Z,50.42
2017-06-25T04:18:25.688Z,50.66
2017-06-25T04:20:53.164Z,51.19
2017-06-25T04:23:20.655Z,50.75
2017-06-25T04:25:48.106Z,50.90
2017-06-25T04:28:15.538Z,50.06
2017-06-25T04:30:42.954Z,50.48
2017-06-25T04:33:10.364Z,50.48
2017-06-25T04:35:37.820Z,51.23
2017-06-25T04:38:05.259Z,51.82
2017-06-25T04:40:33.037Z,52.09
2017-06-25T04:43:00.463Z,52.38
2017-06-25T04:45:27.994Z,52.65
2017-06-25T04:47:55.411Z,53.93
2017-06-25T04:50:22.838Z,54.27
2017-06-25T04:52:50.301Z,54.54
2017-06-25T04:55:17.724Z,54.85
2017-06-25T04:57:45.964Z,55.62
2017-06-25T05:00:13.473Z,56.05
2017-06-25T05:02:41.638Z,55.77
2017-06-25T05:05:09.118Z,55.53
2017-06-25T05:07:36.769Z,55.00
2017-06-25T05:10:05.131Z,54.97
2017-06-25T05:12:35.335Z,54.58
2017-06-25T05:15:03.167Z,53.88
2017-06-25T05:17:30.658Z,53.22
2017-06-25T05:19:59.010Z,52.76
2017-06-25T05:22:26.500Z,52.30
2017-06-25T05:24:57.928Z,51.86
2017-06-25T05:27:25.449Z,51.53
2017-06-25T05:29:52.896Z,51.85
2017-06-25T05:32:20.339Z,51.09
2017-06-25T05:34:47.799Z,51.35
2017-06-25T05:37:15.217Z,51.71
2017-06-25T05:39:42.702Z,51.67
2017-06-25T05:42:10.119Z,51.51
2017-06-25T05:44:42.167Z,51.68
2017-06-25T05:47:09.619Z,51.69
2017-06-25T05:49:37.077Z,51.67
2017-06-25T05:52:04.492Z,51.45
2017-06-25T05:54:31.915Z,51.41
2017-06-25T05:57:00.170Z,52.20
2017-06-25T05:59:27.751Z,51.94
2017-06-25T06:01:55.349Z,52.20
2017-06-25T06:04:22.867Z,52.08
2017-06-25T06:06:50.356Z,52.51
2017-06-25T06:09:17.829Z,52.16
2017-06-25T06:11:45.255Z,52.48
2017-06-25T06:14:12.698Z,52.11
2017-06-25T06:16:40.145Z,52.66
2017-06-25T06:19:07.638Z,52.73
2017-06-25T06:21:35.038Z,53.27
2017-06-25T06:24:02.470Z,53.01
2017-06-25T06:26:29.918Z,51.95
2017-06-25T06:28:57.465Z,52.13
2017-06-25T06:31:24.878Z,52.21
2017-06-25T06:33:52.323Z,51.81
2017-06-25T06:36:19.814Z,51.41
2017-06-25T06:38:47.361Z,51.13
2017-06-25T06:41:14.840Z,50.72
2017-06-25T06:43:42.291Z,50.36
2017-06-25T06:46:13.534Z,50.45
2017-06-25T06:48:41.011Z,49.68
2017-06-25T06:51:08.564Z,49.75
2017-06-25T06:53:38.724Z,49.60
2017-06-25T06:56:09.261Z,49.53
2017-06-25T06:58:43.308Z,49.84
2017-06-25T07:01:14.684Z,49.55
2017-06-25T07:03:42.143Z,47.48
2017-06-25T07:06:11.462Z,47.37
2017-06-25T07:08:38.893Z,46.68
2017-06-25T07:11:06.678Z,46.83
2017-06-25T07:13:34.117Z,46.95
2017-06-25T07:16:01.809Z,45.01
2017-06-25T07:18:29.260Z,44.28
2017-06-25T07:20:57.753Z,44.71
2017-06-25T07:23:25.290Z,44.61
2017-06-25T07:25:52.946Z,44.67
2017-06-25T07:28:20.499Z,44.53
2017-06-25T07:30:50.764Z,44.00
2017-06-25T07:33:18.232Z,43.26
2017-06-25T07:35:49.389Z,43.08
2017-06-25T07:38:17.588Z,41.70
2017-06-25T07:40:45.006Z,42.60
2017-06-25T07:43:12.447Z,41.79
2017-06-25T07:45:39.875Z,42.04
2017-06-25T07:48:08.029Z,41.69
2017-06-25T07:50:35.648Z,41.21
2017-06-25T07:53:03.096Z,40.30
2017-06-25T07:55:30.539Z,40.71
2017-06-25T07:57:57.963Z,41.09
2017-06-25T08:00:27.911Z,39.78
2017-06-25T08:02:55.334Z,39.78
2017-06-25T08:05:22.804Z,39.76
2017-06-25T08:07:50.227Z,39.99
2017-06-25T08:10:17.672Z,39.24
2017-06-25T08:12:45.174Z,38.30
2017-06-25T08:15:15.381Z,37.99
2017-06-25T08:17:42.826Z,38.36
2017-06-25T08:20:10.751Z,38.07
2017-06-25T08:22:38.296Z,39.07
2017-06-25T08:25:05.935Z,38.93
2017-06-25T08:27:33.379Z,38.54
2017-06-25T08:30:00.792Z,39.79
2017-06-25T08:32:28.236Z,38.38
2017-06-25T08:34:56.420Z,39.12
2017-06-25T08:37:23.876Z,39.29
2017-06-25T08:39:51.301Z,38.15
2017-06-25T08:42:18.761Z,37.87
2017-06-25T08:44:46.213Z,37.68
2017-06-25T08:47:13.625Z,37.76
2017-06-25T08:49:41.521Z,39.56
2017-06-25T08:52:08.955Z,39.64
2017-06-25T08:54:37.303Z,40.34
2017-06-25T08:57:04.752Z,39.48
2017-06-25T08:59:32.237Z,39.83
2017-06-25T09:01:59.811Z,39.45
2017-06-25T09:04:27.359Z,37.54
2017-06-25T09:06:55.648Z,37.49
2017-06-25T09:09:23.103Z,37.50
2017-06-25T09:11:50.535Z,38.22
2017-06-25T09:14:17.978Z,37.51
2017-06-25T09:16:46.032Z,37.62
2017-06-25T09:19:13.448Z,36.93
2017-06-25T09:21:40.907Z,36.37
2017-06-25T09:24:08.347Z,35.21
2017-06-25T09:26:36.700Z,35.30
2017-06-25T09:29:04.271Z,35.59
2017-06-25T09:31:36.676Z,34.44
2017-06-25T09:34:04.139Z,33.36
2017-06-25T09:36:38.442Z,34.53
2017-06-25T09:39:05.916Z,33.52
2017-06-25T09:41:33.385Z,33.86
2017-06-25T09:44:00.854Z,34.60
2017-06-25T09:46:28.310Z,32.92
2017-06-25T09:48:55.854Z,32.43
2017-06-25T09:51:23.343Z,32.17
2017-06-25T09:53:53.684Z,31.88
2017-06-25T09:56:21.211Z,31.92
2017-06-25T09:58:48.683Z,32.08
2017-06-25T10:01:16.120Z,33.31
2017-06-25T10:03:43.568Z,32.75
2017-06-25T10:06:11.103Z,32.39
2017-06-25T10:08:38.537Z,32.26
2017-06-25T10:11:08.100Z,32.96
2017-06-25T10:13:35.517Z,33.65
2017-06-25T10:16:02.959Z,33.18
2017-06-25T10:18:30.419Z,33.53
2017-06-25T10:20:57.849Z,32.70
2017-06-25T10:23:25.257Z,33.26
2017-06-25T10:25:52.721Z,32.19
2017-06-25T10:28:20.145Z,32.15
2017-06-25T10:30:47.635Z,31.92
2017-06-25T10:33:15.097Z,32.74
2017-06-25T10:35:42.583Z,32.09
2017-06-25T10:38:10.047Z,31.45
2017-06-25T10:40:37.516Z,31.67
2017-06-25T10:43:04.915Z,31.62
2017-06-25T10:45:32.321Z,32.00
2017-06-25T10:47:59.761Z,30.85
2017-06-25T10:50:27.208Z,30.66
2017-06-25T10:53:01.898Z,30.97
2017-06-25T10:55:31.115Z,30.30
2017-06-25T10:57:58.596Z,30.59
2017-06-25T11:00:26.454Z,30.32
2017-06-25T11:02:53.872Z,30.51
2017-06-25T11:05:21.325Z,29.68
2017-06-25T11:07:48.764Z,29.51
2017-06-25T11:10:16.239Z,28.82
2017-06-25T11:12:43.807Z,29.75
2017-06-25T11:15:12.101Z,29.67
2017-06-25T11:17:39.514Z,29.51
2017-06-25T11:20:06.973Z,29.07
2017-06-25T11:22:38.484Z,29.01
2017-06-25T11:25:05.890Z,28.90
2017-06-25T11:27:36.999Z,28.34
2017-06-25T11:30:04.488Z,28.22
2017-06-25T11:32:31.960Z,28.41
2017-06-25T11:34:59.362Z,29.96
2017-06-25T11:37:27.745Z,29.39
2017-06-25T11:39:55.368Z,29.51
2017-06-25T11:42:22.928Z,30.63
2017-06-25T11:44:50.489Z,30.61
2017-06-25T11:47:17.941Z,30.21
2017-06-25T11:49:45.383Z,29.99
2017-06-25T11:52:12.826Z,29.23
2017-06-25T11:54:40.280Z,29.75
2017-06-25T11:57:07.768Z,27.47
2017-06-25T11:59:35.199Z,27.51
2017-06-25T12:02:02.640Z,27.17
2017-06-25T12:04:30.216Z,28.08
2017-06-25T12:06:57.686Z,28.08
2017-06-25T12:09:25.740Z,28.04
2017-06-25T12:11:53.181Z,27.92
2017-06-25T12:14:20.628Z,28.96
2017-06-25T12:16:48.059Z,28.45
2017-06-25T12:19:15.510Z,28.82
2017-06-25T12:21:43.019Z,27.83
2017-06-25T12:24:10.429Z,29.17
2017-06-25T12:26:37.921Z,29.38
2017-06-25T12:29:05.418Z,29.58
2017-06-25T12:31:32.860Z,29.25
2017-06-25T12:34:02.093Z,29.57
2017-06-25T12:36:29.502Z,29.88
2017-06-25T12:38:56.954Z,30.55
2017-06-25T12:41:24.416Z,31.10
2017-06-25T12:43:52.305Z,32.50
2017-06-25T12:46:19.814Z,32.92
2017-06-25T12:48:47.234Z,33.43
2017-06-25T12:51:14.662Z,33.99
2017-06-25T12:53:42.120Z,34.59
2017-06-25T12:56:09.543Z,35.82
2017-06-25T12:58:37.648Z,35.16
2017-06-25T13:01:05.075Z,34.81
2017-06-25T13:03:32.498Z,35.07
2017-06-25T13:05:59.926Z,34.87
2017-06-25T13:08:27.416Z,34.69
2017-06-25T13:10:54.845Z,35.13
2017-06-25T13:13:22.286Z,34.56
2017-06-25T13:15:49.802Z,34.17
2017-06-25T13:18:17.316Z,32.91
2017-06-25T13:20:44.735Z,33.02
2017-06-25T13:23:12.214Z,32.75
2017-06-25T13:25:39.763Z,33.45
2017-06-25T13:28:07.263Z,33.15
2017-06-25T13:30:34.695Z,33.26
2017-06-25T13:33:02.139Z,32.91
2017-06-25T13:35:32.543Z,33.37
2017-06-25T13:37:59.987Z,34.34
2017-06-25T13:40:27.438Z,34.64
2017-06-25T13:42:54.941Z,33.76
2017-06-25T13:45:22.359Z,33.05
2017-06-25T13:47:49.840Z,32.67
2017-06-25T13:50:17.266Z,30.95
2017-06-25T13:52:44.767Z,31.37
2017-06-25T13:55:12.336Z,31.77
2017-06-25T13:57:40.610Z,31.95
2017-06-25T14:00:08.025Z,32.28
2017-06-25T14:02:35.454Z,32.49
2017-06-25T14:05:03.081Z,32.91
2017-06-25T14:07:30.536Z,32.98
2017-06-25T14:09:58.001Z,33.02
2017-06-25T14:12:25.447Z,33.55
2017-06-25T14:14:52.893Z,33.49
2017-06-25T14:17:20.345Z,33.42
2017-06-25T14:19:47.806Z,34.01
2017-06-25T14:22:15.224Z,33.38
2017-06-25T14:24:42.671Z,33.04
2017-06-25T14:27:10.207Z,32.72
2017-06-25T14:29:37.624Z,32.59
2017-06-25T14:32:05.108Z,32.69
2017-06-25T14:34:32.563Z,33.44
2017-06-25T14:36:59.964Z,33.70
2017-06-25T14:39:27.465Z,32.81
2017-06-25T14:41:54.957Z,32.81
2017-06-25T14:44:22.402Z,32.24
2017-06-25T14:46:49.791Z,33.22
2017-06-25T14:49:17.286Z,31.69
2017-06-25T14:51:45.352Z,30.41
2017-06-25T14:54:12.784Z,29.20
2017-06-25T14:56:40.360Z,28.29
2017-06-25T14:59:07.936Z,28.29
2017-06-25T15:01:35.372Z,28.05
2017-06-25T15:04:02.885Z,28.22
2017-06-25T15:06:30.372Z,28.65
2017-06-25T15:08:57.902Z,29.06
2017-06-25T15:11:25.399Z,29.93
2017-06-25T15:13:52.851Z,30.33
2017-06-25T15:16:20.499Z,30.03
2017-06-25T15:18:47.924Z,31.08
2017-06-25T15:21:15.448Z,31.31
2017-06-25T15:23:43.448Z,31.39
2017-06-25T15:26:10.877Z,31.38
2017-06-25T15:28:38.383Z,31.41
2017-06-25T15:31:06.701Z,32.02
2017-06-25T15:33:34.275Z,31.32
2017-06-25T15:36:01.827Z,32.39
2017-06-25T15:38:29.399Z,32.32
2017-06-25T15:40:56.976Z,32.67
2017-06-25T15:43:24.530Z,33.14
2017-06-25T15:45:51.944Z,32.69
2017-06-25T15:48:19.405Z,33.31
2017-06-25T15:50:46.831Z,32.84
2017-06-25T15:53:14.292Z,33.12
2017-06-25T15:55:41.763Z,33.09
2017-06-25T15:58:09.212Z,33.93
2017-06-25T16:00:36.776Z,33.44
2017-06-25T16:03:04.342Z,33.26
2017-06-25T16:05:31.831Z,33.67
2017-06-25T16:08:00.084Z,33.88
2017-06-25T16:10:27.516Z,33.86
2017-06-25T16:12:55.000Z,34.06
2017-06-25T16:15:22.469Z,34.17
2017-06-25T16:17:49.925Z,34.04
2017-06-25T16:20:17.361Z,34.31
2017-06-25T16:22:44.794Z,34.64
2017-06-25T16:25:12.316Z,34.76
2017-06-25T16:27:39.802Z,34.89
2017-06-25T16:30:07.250Z,34.42
2017-06-25T16:32:34.762Z,34.29
2017-06-25T16:35:02.177Z,34.60
2017-06-25T16:37:29.622Z,34.50
2017-06-25T16:39:57.081Z,34.73
2017-06-25T16:42:24.559Z,35.00
2017-06-25T16:44:52.041Z,34.74
2017-06-25T16:47:20.183Z,35.07
2017-06-25T16:49:47.640Z,34.71
2017-06-25T16:52:15.222Z,34.62
2017-06-25T16:54:42.794Z,34.29
2017-06-25T16:57:10.226Z,34.40
2017-06-25T16:59:37.647Z,35.29
2017-06-25T17:02:05.160Z,34.86
2017-06-25T17:04:32.606Z,35.07
2017-06-25T17:07:00.201Z,34.66
2017-06-25T17:09:27.711Z,35.47
2017-06-25T17:11:55.339Z,35.72
2017-06-25T17:14:22.949Z,35.76
2017-06-25T17:16:50.392Z,35.92
2017-06-25T17:19:18.470Z,36.00
2017-06-25T17:21:45.894Z,35.88
2017-06-25T17:24:13.410Z,36.10
2017-06-25T17:26:40.863Z,36.29
2017-06-25T17:29:08.288Z,36.04
2017-06-25T17:31:35.729Z,35.99
2017-06-25T17:34:03.241Z,36.21
2017-06-25T17:36:30.795Z,36.31
2017-06-25T17:38:58.235Z,36.79
2017-06-25T17:41:25.648Z,36.78
2017-06-25T17:43:53.177Z,36.70
2017-06-25T17:46:20.621Z,37.08
2017-06-25T17:48:48.063Z,36.71
2017-06-25T17:51:15.531Z,36.58
2017-06-25T17:53:43.029Z,36.66
2017-06-25T17:56:10.541Z,36.67
2017-06-25T17:58:37.993Z,36.75
2017-06-25T18:01:05.467Z,36.68
2017-06-25T18:03:32.913Z,36.98
2017-06-25T18:06:00.383Z,36.97
2017-06-25T18:08:27.855Z,37.02
2017-06-25T18:10:55.264Z,37.15
2017-06-25T18:13:23.635Z,37.25
2017-06-25T18:15:51.060Z,37.65
2017-06-25T18:18:19.526Z,37.48
2017-06-25T18:20:46.991Z,37.55
2017-06-25T18:23:14.507Z,37.22
2017-06-25T18:25:42.010Z,37.75
2017-06-25T18:28:09.467Z,37.75
2017-06-25T18:30:36.930Z,37.66
2017-06-25T18:33:05.055Z,37.59
2017-06-25T18:35:32.552Z,37.64
2017-06-25T18:38:00.023Z,37.60
2017-06-25T18:40:27.595Z,37.81
2017-06-25T18:42:55.027Z,37.72
2017-06-25T18:45:22.455Z,37.65
2017-06-25T18:47:53.964Z,37.69
2017-06-25T18:50:23.368Z,37.87
2017-06-25T18:52:55.461Z,38.10
2017-06-25T18:55:26.777Z,37.81
2017-06-25T18:57:56.088Z,38.13
2017-06-25T19:00:30.916Z,38.55
2017-06-25T19:03:02.217Z,38.77
2017-06-25T19:05:29.634Z,38.84
2017-06-25T19:07:57.125Z,39.05
2017-06-25T19:10:26.428Z,38.93
2017-06-25T19:12:53.864Z,38.91
2017-06-25T19:15:26.152Z,39.13
2017-06-25T19:17:57.424Z,39.10
2017-06-25T19:20:24.950Z,39.19
2017-06-25T19:22:52.438Z,39.24
2017-06-25T19:25:19.870Z,39.12
2017-06-25T19:27:51.335Z,39.68
2017-06-25T19:30:18.991Z,39.99
2017-06-25T19:32:47.370Z,39.80
2017-06-25T19:35:16.426Z,40.22
2017-06-25T19:37:43.890Z,39.66
2017-06-25T19:40:11.330Z,39.98
2017-06-25T19:42:38.829Z,40.31
2017-06-25T19:45:06.289Z,40.28
2017-06-25T19:47:33.709Z,40.33
2017-06-25T19:50:01.164Z,40.10
2017-06-25T19:52:28.644Z,40.26
2017-06-25T19:54:57.034Z,40.40
2017-06-25T19:57:24.475Z,40.58
2017-06-25T19:59:51.931Z,40.39
2017-06-25T20:02:20.203Z,40.50
2017-06-25T20:04:47.667Z,40.96
2017-06-25T20:07:15.147Z,40.67
2017-06-25T20:09:42.620Z,40.75
2017-06-25T20:12:10.056Z,40.57
2017-06-25T20:14:37.601Z,40.85
2017-06-25T20:17:05.100Z,41.42
2017-06-25T20:19:32.547Z,41.47
2017-06-25T20:22:00.015Z,41.33
2017-06-25T20:24:27.445Z,41.87
2017-06-25T20:26:54.881Z,42.07
2017-06-25T20:29:22.356Z,42.41
2017-06-25T20:31:49.807Z,42.18
2017-06-25T20:34:17.351Z,42.06
2017-06-25T20:36:45.025Z,42.42
2017-06-25T20:39:12.435Z,42.96
2017-06-25T20:41:39.853Z,43.13
2017-06-25T20:44:07.337Z,43.07
2017-06-25T20:46:34.769Z,43.84
2017-06-25T20:49:04.123Z,43.75
2017-06-25T20:51:31.843Z,43.87
2017-06-25T20:53:59.280Z,43.70
2017-06-25T20:56:26.698Z,43.76
2017-06-25T20:58:54.206Z,44.05
2017-06-25T21:01:21.653Z,44.17
2017-06-25T21:03:49.081Z,44.65
2017-06-25T21:06:16.564Z,44.64
2017-06-25T21:08:44.069Z,45.18
2017-06-25T21:11:11.578Z,45.33
2017-06-25T21:13:39.240Z,45.11
2017-06-25T21:16:07.673Z,45.62
2017-06-25T21:18:39.907Z,46.31
2017-06-25T21:21:07.308Z,46.93
2017-06-25T21:23:34.758Z,46.87
2017-06-25T21:26:02.288Z,47.31
2017-06-25T21:28:29.789Z,47.21
2017-06-25T21:30:57.201Z,48.15
2017-06-25T21:33:24.611Z,47.43
2017-06-25T21:35:52.081Z,47.20
2017-06-25T21:38:19.533Z,47.45
2017-06-25T21:40:46.988Z,47.40
2017-06-25T21:43:14.464Z,47.51
2017-06-25T21:45:41.964Z,47.86
2017-06-25T21:48:09.467Z,48.08
2017-06-25T21:50:36.918Z,47.77
2017-06-25T21:53:04.339Z,47.70
2017-06-25T21:55:31.796Z,48.17
2017-06-25T21:57:59.217Z,49.08
2017-06-25T22:00:26.659Z,48.83
2017-06-25T22:02:54.199Z,48.96
2017-06-25T22:05:23.611Z,49.05
2017-06-25T22:07:51.125Z,49.16
2017-06-25T22:10:18.534Z,49.40
2017-06-25T22:12:45.983Z,49.56
2017-06-25T22:15:13.400Z,49.79
2017-06-25T22:17:40.864Z,49.91
2017-06-25T22:20:08.291Z,49.72
2017-06-25T22:22:35.752Z,49.95
2017-06-25T22:25:03.156Z,49.75
2017-06-25T22:27:30.596Z,49.81
2017-06-25T22:29:58.009Z,51.18
2017-06-25T22:32:25.423Z,51.02
2017-06-25T22:34:52.973Z,51.06
2017-06-25T22:37:20.502Z,51.29
2017-06-25T22:39:47.933Z,51.52
2017-06-25T22:42:15.465Z,51.09
2017-06-25T22:44:42.953Z,50.83
2017-06-25T22:47:10.385Z,51.01
2017-06-25T22:49:37.850Z,51.26
2017-06-25T22:52:05.279Z,51.16
2017-06-25T22:54:32.781Z,51.50
2017-06-25T22:57:00.393Z,51.56
2017-06-25T22:59:27.846Z,51.44
2017-06-25T23:01:55.307Z,51.56
2017-06-25T23:04:22.762Z,51.25
2017-06-25T23:06:56.261Z,51.40
2017-06-25T23:09:23.694Z,51.65
2017-06-25T23:11:51.123Z,51.35
2017-06-25T23:14:18.552Z,51.68
2017-06-25T23:16:46.070Z,51.77
2017-06-25T23:19:13.467Z,51.87
2017-06-25T23:21:40.880Z,52.46
2017-06-25T23:24:08.318Z,52.96
2017-06-25T23:26:35.768Z,53.89
2017-06-25T23:29:03.224Z,54.10
2017-06-25T23:31:30.732Z,54.22
2017-06-25T23:33:58.196Z,54.17
2017-06-25T23:36:26.532Z,54.17
2017-06-25T23:38:53.953Z,54.80
2017-06-25T23:41:21.425Z,55.50
2017-06-25T23:43:48.832Z,54.65
2017-06-25T23:46:16.557Z,54.49
2017-06-25T23:48:44.835Z,54.78
2017-06-25T23:51:12.305Z,55.14
2017-06-25T23:53:39.769Z,54.89
2017-06-25T23:56:07.211Z,54.49
2017-06-25T23:58:34.615Z,54.92
